sensor_id;sensor_type;location;lat;lon;timestamp;pressure;altitude;pressure_sealevel;temperature;humidity
5284;BME280;15377;48.540;9.268;2024-02-15T00:00:09;97966.38;;;9.14;100.00
5284;BME280;15377;48.540;9.268;2024-02-15T00:02:35;97973.75;;;9.17;100.00
5284;BME280;15377;48.540;9.268;2024-02-15T00:05:01;97968.25;;;9.17;100.00
5284;BME280;15377;48.540;9.268;2024-02-15T00:07:26;97968.25;;;9.17;100.00
5284;BME280;15377;48.540;9.268;2024-02-15T00:09:52;97968.38;;;9.14;100.00
5284;BME280;15377;48.540;9.268;2024-02-15T00:12:18;97967.44;;;9.08;100.00
5284;BME280;15377;48.540;9.268;2024-02-15T00:14:44;97978.22;;;9.02;100.00
5284;BME280;15377;48.540;9.268;2024-02-15T00:17:09;97968.13;;;8.99;100.00
5284;BME280;15377;48.540;9.268;2024-02-15T00:19:35;97975.13;;;9.00;100.00
5284;BME280;15377;48.540;9.268;2024-02-15T00:22:01;97968.13;;;8.99;100.00
5284;BME280;15377;48.540;9.268;2024-02-15T00:24:26;97968.00;;;9.03;100.00
5284;BME280;15377;48.540;9.268;2024-02-15T00:26:52;97963.59;;;9.05;100.00
5284;BME280;15377;48.540;9.268;2024-02-15T00:29:18;97969.25;;;9.11;100.00
5284;BME280;15377;48.540;9.268;2024-02-15T00:31:44;97968.69;;;9.16;100.00
5284;BME280;15377;48.540;9.268;2024-02-15T00:34:09;97976.81;;;9.19;100.00
5284;BME280;15377;48.540;9.268;2024-02-15T00:36:34;97968.25;;;9.17;100.00
5284;BME280;15377;48.540;9.268;2024-02-15T00:39:00;97977.84;;;9.13;100.00
5284;BME280;15377;48.540;9.268;2024-02-15T00:41:26;97973.09;;;9.13;100.00
5284;BME280;15377;48.540;9.268;2024-02-15T00:43:51;97974.94;;;9.16;100.00
5284;BME280;15377;48.540;9.268;2024-02-15T00:46:17;97978.34;;;9.20;100.00
5284;BME280;15377;48.540;9.268;2024-02-15T00:48:42;97976.69;;;9.23;100.00
5284;BME280;15377;48.540;9.268;2024-02-15T00:51:07;97970.94;;;9.30;100.00
5284;BME280;15377;48.540;9.268;2024-02-15T00:53:33;97965.91;;;9.37;100.00
5284;BME280;15377;48.540;9.268;2024-02-15T00:55:58;97978.78;;;9.40;100.00
5284;BME280;15377;48.540;9.268;2024-02-15T00:58:24;97969.88;;;9.36;100.00
5284;BME280;15377;48.540;9.268;2024-02-15T01:00:51;97958.50;;;9.47;100.00
5284;BME280;15377;48.540;9.268;2024-02-15T01:03:17;97968.44;;;9.53;100.00
5284;BME280;15377;48.540;9.268;2024-02-15T01:05:42;97966.34;;;9.57;100.00
5284;BME280;15377;48.540;9.268;2024-02-15T01:08:07;97959.88;;;9.51;100.00
5284;BME280;15377;48.540;9.268;2024-02-15T01:10:34;97949.81;;;9.48;100.00
5284;BME280;15377;48.540;9.268;2024-02-15T01:13:00;97967.19;;;9.45;100.00
5284;BME280;15377;48.540;9.268;2024-02-15T01:15:25;97968.34;;;9.35;100.00
5284;BME280;15377;48.540;9.268;2024-02-15T01:17:51;97954.19;;;9.15;100.00
5284;BME280;15377;48.540;9.268;2024-02-15T01:20:16;97965.59;;;9.05;100.00
5284;BME280;15377;48.540;9.268;2024-02-15T01:22:41;97956.50;;;8.95;100.00
5284;BME280;15377;48.540;9.268;2024-02-15T01:25:07;97945.00;;;8.88;100.00
5284;BME280;15377;48.540;9.268;2024-02-15T01:27:33;97953.97;;;8.79;100.00
5284;BME280;15377;48.540;9.268;2024-02-15T01:29:59;97945.00;;;8.66;100.00
5284;BME280;15377;48.540;9.268;2024-02-15T01:32:24;97946.16;;;8.56;100.00
5284;BME280;15377;48.540;9.268;2024-02-15T01:34:52;97942.69;;;8.43;100.00
5284;BME280;15377;48.540;9.268;2024-02-15T01:37:20;97938.34;;;8.33;100.00
5284;BME280;15377;48.540;9.268;2024-02-15T01:39:46;97935.59;;;8.33;100.00
5284;BME280;15377;48.540;9.268;2024-02-15T01:42:11;97925.44;;;8.21;100.00
5284;BME280;15377;48.540;9.268;2024-02-15T01:44:39;97933.09;;;8.26;100.00
5284;BME280;15377;48.540;9.268;2024-02-15T01:47:05;97934.94;;;8.17;100.00
5284;BME280;15377;48.540;9.268;2024-02-15T01:49:31;97935.31;;;8.06;100.00
5284;BME280;15377;48.540;9.268;2024-02-15T01:51:58;97933.78;;;8.05;100.00
5284;BME280;15377;48.540;9.268;2024-02-15T01:54:24;97930.94;;;7.96;100.00
5284;BME280;15377;48.540;9.268;2024-02-15T01:56:50;97933.44;;;8.03;100.00
5284;BME280;15377;48.540;9.268;2024-02-15T01:59:15;97927.97;;;8.03;100.00
5284;BME280;15377;48.540;9.268;2024-02-15T02:01:42;97919.81;;;8.12;100.00
5284;BME280;15377;48.540;9.268;2024-02-15T02:04:08;97919.63;;;8.19;100.00
5284;BME280;15377;48.540;9.268;2024-02-15T02:06:34;97919.94;;;8.21;100.00
5284;BME280;15377;48.540;9.268;2024-02-15T02:08:59;97920.41;;;8.07;100.00
5284;BME280;15377;48.540;9.268;2024-02-15T02:11:25;97921.19;;;7.95;100.00
5284;BME280;15377;48.540;9.268;2024-02-15T02:13:51;97917.59;;;7.73;100.00
5284;BME280;15377;48.540;9.268;2024-02-15T02:16:29;97918.81;;;7.72;100.00
5284;BME280;15377;48.540;9.268;2024-02-15T02:18:55;97922.97;;;7.64;100.00
5284;BME280;15377;48.540;9.268;2024-02-15T02:21:27;97919.81;;;7.53;100.00
5284;BME280;15377;48.540;9.268;2024-02-15T02:23:55;97915.78;;;7.45;100.00
5284;BME280;15377;48.540;9.268;2024-02-15T02:26:22;97921.16;;;7.36;100.00
5284;BME280;15377;48.540;9.268;2024-02-15T02:28:48;97907.31;;;7.27;100.00
5284;BME280;15377;48.540;9.268;2024-02-15T02:31:13;97920.69;;;7.25;100.00
5284;BME280;15377;48.540;9.268;2024-02-15T02:33:39;97923.31;;;7.16;100.00
5284;BME280;15377;48.540;9.268;2024-02-15T02:36:06;97925.25;;;7.03;100.00
5284;BME280;15377;48.540;9.268;2024-02-15T02:38:37;97926.56;;;6.99;100.00
5284;BME280;15377;48.540;9.268;2024-02-15T02:41:05;97921.63;;;6.94;100.00
5284;BME280;15377;48.540;9.268;2024-02-15T02:43:30;97924.34;;;6.82;100.00
5284;BME280;15377;48.540;9.268;2024-02-15T02:45:55;97937.03;;;6.76;100.00
5284;BME280;15377;48.540;9.268;2024-02-15T02:48:21;97922.84;;;6.65;100.00
5284;BME280;15377;48.540;9.268;2024-02-15T02:50:48;97924.16;;;6.60;100.00
5284;BME280;15377;48.540;9.268;2024-02-15T02:53:13;97922.63;;;6.31;100.00
5284;BME280;15377;48.540;9.268;2024-02-15T02:55:41;97926.84;;;6.19;100.00
5284;BME280;15377;48.540;9.268;2024-02-15T02:58:06;97926.16;;;6.15;100.00
5284;BME280;15377;48.540;9.268;2024-02-15T03:00:33;97914.47;;;6.15;100.00
5284;BME280;15377;48.540;9.268;2024-02-15T03:02:59;97922.31;;;6.13;100.00
5284;BME280;15377;48.540;9.268;2024-02-15T03:05:27;97921.81;;;6.18;100.00
5284;BME280;15377;48.540;9.268;2024-02-15T03:07:54;97904.03;;;6.26;100.00
5284;BME280;15377;48.540;9.268;2024-02-15T03:10:20;97919.53;;;6.45;100.00
5284;BME280;15377;48.540;9.268;2024-02-15T03:12:45;97917.94;;;6.60;100.00
5284;BME280;15377;48.540;9.268;2024-02-15T03:15:14;97922.63;;;6.59;100.00
5284;BME280;15377;48.540;9.268;2024-02-15T03:17:43;97921.50;;;6.57;100.00
5284;BME280;15377;48.540;9.268;2024-02-15T03:20:10;97912.66;;;6.53;100.00
5284;BME280;15377;48.540;9.268;2024-02-15T03:22:55;97924.59;;;6.59;100.00
5284;BME280;15377;48.540;9.268;2024-02-15T03:25:22;97911.03;;;6.55;100.00
5284;BME280;15377;48.540;9.268;2024-02-15T03:27:51;97915.72;;;6.55;100.00
5284;BME280;15377;48.540;9.268;2024-02-15T03:30:18;97927.66;;;6.61;100.00
5284;BME280;15377;48.540;9.268;2024-02-15T03:32:47;97927.81;;;6.70;100.00
5284;BME280;15377;48.540;9.268;2024-02-15T03:35:21;97912.28;;;6.67;100.00
5284;BME280;15377;48.540;9.268;2024-02-15T03:37:48;97920.38;;;6.70;100.00
5284;BME280;15377;48.540;9.268;2024-02-15T03:40:16;97920.47;;;6.67;100.00
5284;BME280;15377;48.540;9.268;2024-02-15T03:42:41;97928.00;;;6.63;100.00
5284;BME280;15377;48.540;9.268;2024-02-15T03:45:07;97921.78;;;6.62;100.00
5284;BME280;15377;48.540;9.268;2024-02-15T03:47:33;97908.72;;;6.54;100.00
5284;BME280;15377;48.540;9.268;2024-02-15T03:49:59;97917.25;;;6.56;100.00
5284;BME280;15377;48.540;9.268;2024-02-15T03:52:25;97917.25;;;6.56;100.00
5284;BME280;15377;48.540;9.268;2024-02-15T03:54:50;97915.34;;;6.40;100.00
5284;BME280;15377;48.540;9.268;2024-02-15T03:57:17;97927.91;;;6.38;100.00
5284;BME280;15377;48.540;9.268;2024-02-15T03:59:43;97930.00;;;6.18;100.00
5284;BME280;15377;48.540;9.268;2024-02-15T04:02:08;97923.09;;;5.97;100.00
5284;BME280;15377;48.540;9.268;2024-02-15T04:04:39;97925.66;;;5.72;100.00
5284;BME280;15377;48.540;9.268;2024-02-15T04:07:07;97929.16;;;5.57;100.00
5284;BME280;15377;48.540;9.268;2024-02-15T04:09:33;97919.25;;;5.47;100.00
5284;BME280;15377;48.540;9.268;2024-02-15T04:12:01;97934.06;;;5.46;100.00
5284;BME280;15377;48.540;9.268;2024-02-15T04:14:26;97938.38;;;5.63;100.00
5284;BME280;15377;48.540;9.268;2024-02-15T04:16:51;97941.91;;;5.79;100.00
5284;BME280;15377;48.540;9.268;2024-02-15T04:19:17;97938.31;;;5.98;100.00
5284;BME280;15377;48.540;9.268;2024-02-15T04:21:45;97934.97;;;6.07;100.00
5284;BME280;15377;48.540;9.268;2024-02-15T04:24:12;97940.56;;;6.32;100.00
5284;BME280;15377;48.540;9.268;2024-02-15T04:26:38;97942.41;;;6.51;100.00
5284;BME280;15377;48.540;9.268;2024-02-15T04:29:03;97945.94;;;6.64;100.00
5284;BME280;15377;48.540;9.268;2024-02-15T04:31:29;97939.66;;;6.79;100.00
5284;BME280;15377;48.540;9.268;2024-02-15T04:33:54;97930.47;;;6.86;100.00
5284;BME280;15377;48.540;9.268;2024-02-15T04:36:21;97932.38;;;7.01;100.00
5284;BME280;15377;48.540;9.268;2024-02-15T04:38:51;97919.78;;;7.03;100.00
5284;BME280;15377;48.540;9.268;2024-02-15T04:41:17;97924.84;;;7.17;100.00
5284;BME280;15377;48.540;9.268;2024-02-15T04:43:49;97921.47;;;7.26;100.00
5284;BME280;15377;48.540;9.268;2024-02-15T04:46:14;97931.31;;;7.36;100.00
5284;BME280;15377;48.540;9.268;2024-02-15T04:48:40;97917.31;;;7.34;100.00
5284;BME280;15377;48.540;9.268;2024-02-15T04:51:11;97920.03;;;7.46;100.00
5284;BME280;15377;48.540;9.268;2024-02-15T04:53:37;97925.41;;;7.50;100.00
5284;BME280;15377;48.540;9.268;2024-02-15T04:56:05;97925.41;;;7.50;100.00
5284;BME280;15377;48.540;9.268;2024-02-15T04:58:37;97916.09;;;7.47;100.00
5284;BME280;15377;48.540;9.268;2024-02-15T05:01:03;97924.31;;;7.47;100.00
5284;BME280;15377;48.540;9.268;2024-02-15T05:03:31;97914.00;;;7.39;100.00
5284;BME280;15377;48.540;9.268;2024-02-15T05:05:59;97917.63;;;7.36;100.00
5284;BME280;15377;48.540;9.268;2024-02-15T05:08:25;97917.41;;;7.30;100.00
5284;BME280;15377;48.540;9.268;2024-02-15T05:10:51;97919.94;;;7.25;100.00
5284;BME280;15377;48.540;9.268;2024-02-15T05:13:21;97914.56;;;7.21;100.00
5284;BME280;15377;48.540;9.268;2024-02-15T05:15:47;97914.09;;;7.10;100.00
5284;BME280;15377;48.540;9.268;2024-02-15T05:18:12;97909.72;;;7.01;100.00
5284;BME280;15377;48.540;9.268;2024-02-15T05:20:38;97907.84;;;6.98;100.00
5284;BME280;15377;48.540;9.268;2024-02-15T05:23:06;97907.50;;;6.96;100.00
5284;BME280;15377;48.540;9.268;2024-02-15T05:25:31;97910.91;;;7.00;100.00
5284;BME280;15377;48.540;9.268;2024-02-15T05:27:58;97897.44;;;6.93;100.00
5284;BME280;15377;48.540;9.268;2024-02-15T05:30:24;97901.59;;;6.97;100.00
5284;BME280;15377;48.540;9.268;2024-02-15T05:32:50;97892.84;;;6.90;100.00
5284;BME280;15377;48.540;9.268;2024-02-15T05:35:17;97890.31;;;6.83;100.00
5284;BME280;15377;48.540;9.268;2024-02-15T05:37:43;97900.25;;;6.77;100.00
5284;BME280;15377;48.540;9.268;2024-02-15T05:40:08;97905.81;;;6.73;100.00
5284;BME280;15377;48.540;9.268;2024-02-15T05:42:41;97897.72;;;6.70;100.00
5284;BME280;15377;48.540;9.268;2024-02-15T05:45:40;97896.72;;;6.64;100.00
5284;BME280;15377;48.540;9.268;2024-02-15T05:48:05;97890.09;;;6.49;100.00
5284;BME280;15377;48.540;9.268;2024-02-15T05:50:34;97906.41;;;6.52;100.00
5284;BME280;15377;48.540;9.268;2024-02-15T05:52:59;97902.59;;;6.50;100.00
5284;BME280;15377;48.540;9.268;2024-02-15T05:55:26;97908.91;;;6.47;100.00
5284;BME280;15377;48.540;9.268;2024-02-15T05:57:52;97913.91;;;6.36;100.00
5284;BME280;15377;48.540;9.268;2024-02-15T06:00:18;97905.72;;;6.36;100.00
5284;BME280;15377;48.540;9.268;2024-02-15T06:02:44;97902.97;;;6.36;100.00
5284;BME280;15377;48.540;9.268;2024-02-15T06:05:09;97902.19;;;6.35;100.00
5284;BME280;15377;48.540;9.268;2024-02-15T06:07:35;97907.91;;;6.41;100.00
5284;BME280;15377;48.540;9.268;2024-02-15T06:10:00;97910.63;;;6.41;100.00
5284;BME280;15377;48.540;9.268;2024-02-15T06:12:29;97910.53;;;6.44;100.00
5284;BME280;15377;48.540;9.268;2024-02-15T06:14:54;97907.47;;;6.42;100.00
5284;BME280;15377;48.540;9.268;2024-02-15T06:17:20;97914.97;;;6.26;100.00
5284;BME280;15377;48.540;9.268;2024-02-15T06:19:45;97915.16;;;6.19;100.00
5284;BME280;15377;48.540;9.268;2024-02-15T06:22:11;97917.88;;;6.19;100.00
5284;BME280;15377;48.540;9.268;2024-02-15T06:24:37;97911.06;;;6.11;100.00
5284;BME280;15377;48.540;9.268;2024-02-15T06:27:03;97916.69;;;6.20;100.00
5284;BME280;15377;48.540;9.268;2024-02-15T06:29:29;97918.97;;;6.21;100.00
5284;BME280;15377;48.540;9.268;2024-02-15T06:32:12;97918.47;;;6.10;100.00
5284;BME280;15377;48.540;9.268;2024-02-15T06:34:56;97915.50;;;6.05;100.00
5284;BME280;15377;48.540;9.268;2024-02-15T06:37:40;97914.81;;;6.01;100.00
5284;BME280;15377;48.540;9.268;2024-02-15T06:40:24;97926.44;;;5.89;100.00
5284;BME280;15377;48.540;9.268;2024-02-15T06:42:49;97927.47;;;5.79;100.00
5284;BME280;15377;48.540;9.268;2024-02-15T06:45:16;97915.59;;;5.69;100.00
5284;BME280;15377;48.540;9.268;2024-02-15T06:47:42;97908.00;;;5.61;100.00
5284;BME280;15377;48.540;9.268;2024-02-15T06:50:14;97902.19;;;5.59;100.00
5284;BME280;15377;48.540;9.268;2024-02-15T06:52:40;97906.28;;;5.51;100.00
5284;BME280;15377;48.540;9.268;2024-02-15T06:55:06;97899.03;;;5.44;100.00
5284;BME280;15377;48.540;9.268;2024-02-15T06:57:33;97906.03;;;5.45;100.00
5284;BME280;15377;48.540;9.268;2024-02-15T07:00:02;97893.59;;;5.44;100.00
5284;BME280;15377;48.540;9.268;2024-02-15T07:02:27;97898.44;;;5.53;100.00
5284;BME280;15377;48.540;9.268;2024-02-15T07:04:54;97898.09;;;5.51;100.00
5284;BME280;15377;48.540;9.268;2024-02-15T07:07:19;97909.59;;;5.58;100.00
5284;BME280;15377;48.540;9.268;2024-02-15T07:09:44;97905.09;;;5.68;100.00
5284;BME280;15377;48.540;9.268;2024-02-15T07:12:10;97894.88;;;5.88;100.00
5284;BME280;15377;48.540;9.268;2024-02-15T07:14:36;97894.22;;;6.12;100.00
5284;BME280;15377;48.540;9.268;2024-02-15T07:17:01;97896.63;;;6.39;100.00
5284;BME280;15377;48.540;9.268;2024-02-15T07:19:27;97888.88;;;6.66;100.00
5284;BME280;15377;48.540;9.268;2024-02-15T07:21:52;97888.03;;;6.94;100.00
5284;BME280;15377;48.540;9.268;2024-02-15T07:24:18;97896.03;;;7.13;100.00
5284;BME280;15377;48.540;9.268;2024-02-15T07:26:44;97897.03;;;7.31;100.00
5284;BME280;15377;48.540;9.268;2024-02-15T07:29:09;97894.97;;;7.48;100.00
5284;BME280;15377;48.540;9.268;2024-02-15T07:31:36;97886.19;;;7.53;100.00
5284;BME280;15377;48.540;9.268;2024-02-15T07:34:01;97892.75;;;7.68;100.00
5284;BME280;15377;48.540;9.268;2024-02-15T07:36:28;97893.28;;;7.75;100.00
5284;BME280;15377;48.540;9.268;2024-02-15T07:38:54;97880.56;;;7.81;100.00
5284;BME280;15377;48.540;9.268;2024-02-15T07:41:23;97883.91;;;7.98;100.00
5284;BME280;15377;48.540;9.268;2024-02-15T07:43:49;97893.41;;;8.18;100.00
5284;BME280;15377;48.540;9.268;2024-02-15T07:46:16;97893.19;;;8.25;100.00
5284;BME280;15377;48.540;9.268;2024-02-15T07:48:42;97890.91;;;8.45;100.00
5284;BME280;15377;48.540;9.268;2024-02-15T07:51:15;97886.19;;;8.67;100.00
5284;BME280;15377;48.540;9.268;2024-02-15T07:53:41;97884.50;;;8.91;100.00
5284;BME280;15377;48.540;9.268;2024-02-15T07:56:08;97873.50;;;9.13;100.00
5284;BME280;15377;48.540;9.268;2024-02-15T07:58:38;97870.53;;;9.29;100.00
5284;BME280;15377;48.540;9.268;2024-02-15T08:01:04;97878.66;;;9.41;100.00
5284;BME280;15377;48.540;9.268;2024-02-15T08:03:30;97865.41;;;9.58;100.00
5284;BME280;15377;48.540;9.268;2024-02-15T08:05:56;97857.97;;;9.58;100.00
5284;BME280;15377;48.540;9.268;2024-02-15T08:08:21;97846.97;;;9.67;100.00
5284;BME280;15377;48.540;9.268;2024-02-15T08:10:48;97849.16;;;9.72;100.00
5284;BME280;15377;48.540;9.268;2024-02-15T08:13:16;97851.91;;;9.81;100.00
5284;BME280;15377;48.540;9.268;2024-02-15T08:15:42;97846.56;;;9.96;100.00
5284;BME280;15377;48.540;9.268;2024-02-15T08:18:09;97850.88;;;10.06;100.00
5284;BME280;15377;48.540;9.268;2024-02-15T08:20:38;97832.09;;;10.13;100.00
5284;BME280;15377;48.540;9.268;2024-02-15T08:23:06;97837.75;;;10.37;100.00
5284;BME280;15377;48.540;9.268;2024-02-15T08:25:31;97832.41;;;10.51;100.00
5284;BME280;15377;48.540;9.268;2024-02-15T08:27:57;97828.09;;;10.68;100.00
5284;BME280;15377;48.540;9.268;2024-02-15T08:30:22;97822.97;;;10.93;100.00
5284;BME280;15377;48.540;9.268;2024-02-15T08:32:47;97822.44;;;11.13;100.00
5284;BME280;15377;48.540;9.268;2024-02-15T08:35:14;97829.06;;;11.39;100.00
5284;BME280;15377;48.540;9.268;2024-02-15T08:37:40;97816.47;;;11.47;100.00
5284;BME280;15377;48.540;9.268;2024-02-15T08:40:10;97815.66;;;11.64;100.00
5284;BME280;15377;48.540;9.268;2024-02-15T08:42:43;97819.63;;;11.87;100.00
5284;BME280;15377;48.540;9.268;2024-02-15T08:45:09;97821.59;;;12.10;100.00
5284;BME280;15377;48.540;9.268;2024-02-15T08:47:36;97821.25;;;12.17;100.00
5284;BME280;15377;48.540;9.268;2024-02-15T08:50:03;97809.94;;;12.29;100.00
5284;BME280;15377;48.540;9.268;2024-02-15T08:52:28;97805.50;;;12.32;100.00
5284;BME280;15377;48.540;9.268;2024-02-15T08:54:54;97807.13;;;12.53;100.00
5284;BME280;15377;48.540;9.268;2024-02-15T08:57:20;97800.38;;;12.68;100.00
5284;BME280;15377;48.540;9.268;2024-02-15T08:59:46;97802.66;;;12.84;100.00
5284;BME280;15377;48.540;9.268;2024-02-15T09:02:12;97796.00;;;13.20;100.00
5284;BME280;15377;48.540;9.268;2024-02-15T09:04:39;97771.53;;;13.87;100.00
5284;BME280;15377;48.540;9.268;2024-02-15T09:07:06;97781.41;;;14.84;100.00
5284;BME280;15377;48.540;9.268;2024-02-15T09:09:32;97781.81;;;15.76;100.00
5284;BME280;15377;48.540;9.268;2024-02-15T09:12:01;97787.44;;;16.56;100.00
5284;BME280;15377;48.540;9.268;2024-02-15T09:14:26;97790.78;;;17.43;100.00
5284;BME280;15377;48.540;9.268;2024-02-15T09:16:52;97779.16;;;18.23;100.00
5284;BME280;15377;48.540;9.268;2024-02-15T09:19:17;97781.63;;;19.13;100.00
5284;BME280;15377;48.540;9.268;2024-02-15T09:21:44;97777.59;;;20.34;94.20
5284;BME280;15377;48.540;9.268;2024-02-15T09:24:09;97784.44;;;21.51;83.72
5284;BME280;15377;48.540;9.268;2024-02-15T09:26:34;97780.19;;;22.41;75.32
5284;BME280;15377;48.540;9.268;2024-02-15T09:29:03;97780.50;;;22.51;74.70
5284;BME280;15377;48.540;9.268;2024-02-15T09:31:29;97771.75;;;23.21;66.08
5284;BME280;15377;48.540;9.268;2024-02-15T09:33:54;97767.75;;;23.85;62.85
5284;BME280;15377;48.540;9.268;2024-02-15T09:36:19;97770.66;;;24.00;60.29
5284;BME280;15377;48.540;9.268;2024-02-15T09:38:45;97764.09;;;23.98;61.59
5284;BME280;15377;48.540;9.268;2024-02-15T09:41:11;97743.50;;;23.47;61.50
5284;BME280;15377;48.540;9.268;2024-02-15T09:43:38;97756.31;;;22.81;62.62
5284;BME280;15377;48.540;9.268;2024-02-15T09:46:03;97755.97;;;23.18;63.39
5284;BME280;15377;48.540;9.268;2024-02-15T09:48:31;97750.56;;;23.68;61.07
5284;BME280;15377;48.540;9.268;2024-02-15T09:50:57;97745.22;;;23.29;61.87
5284;BME280;15377;48.540;9.268;2024-02-15T09:53:23;97746.50;;;24.05;59.27
5284;BME280;15377;48.540;9.268;2024-02-15T09:55:53;97745.28;;;24.21;58.07
5284;BME280;15377;48.540;9.268;2024-02-15T09:58:19;97745.53;;;24.30;57.12
5284;BME280;15377;48.540;9.268;2024-02-15T10:00:45;97742.00;;;24.37;57.99
5284;BME280;15377;48.540;9.268;2024-02-15T10:03:13;97747.06;;;24.39;56.21
5284;BME280;15377;48.540;9.268;2024-02-15T10:05:41;97740.97;;;24.20;57.66
5284;BME280;15377;48.540;9.268;2024-02-15T10:08:07;97740.06;;;23.89;59.31
5284;BME280;15377;48.540;9.268;2024-02-15T10:10:32;97741.84;;;24.50;56.98
5284;BME280;15377;48.540;9.268;2024-02-15T10:12:59;97735.22;;;24.91;54.67
5284;BME280;15377;48.540;9.268;2024-02-15T10:15:30;97737.81;;;24.66;54.82
5284;BME280;15377;48.540;9.268;2024-02-15T10:17:57;97739.06;;;23.59;56.65
5284;BME280;15377;48.540;9.268;2024-02-15T10:20:24;97735.41;;;22.49;61.92
5284;BME280;15377;48.540;9.268;2024-02-15T10:25:28;97727.63;;;19.10;82.05
5284;BME280;15377;48.540;9.268;2024-02-15T10:28:08;97723.47;;;18.12;91.60
5284;BME280;15377;48.540;9.268;2024-02-15T10:30:38;97723.22;;;17.31;98.79
5284;BME280;15377;48.540;9.268;2024-02-15T10:33:05;97722.78;;;17.05;100.00
5284;BME280;15377;48.540;9.268;2024-02-15T10:35:31;97725.31;;;16.92;100.00
5284;BME280;15377;48.540;9.268;2024-02-15T10:38:09;97716.72;;;16.57;100.00
5284;BME280;15377;48.540;9.268;2024-02-15T10:40:39;97718.72;;;16.40;100.00
5284;BME280;15377;48.540;9.268;2024-02-15T10:43:08;97715.59;;;16.16;100.00
5284;BME280;15377;48.540;9.268;2024-02-15T10:45:38;97693.88;;;16.09;100.00
5284;BME280;15377;48.540;9.268;2024-02-15T10:48:10;97709.28;;;16.10;100.00
5284;BME280;15377;48.540;9.268;2024-02-15T10:50:39;97704.44;;;16.00;100.00
5284;BME280;15377;48.540;9.268;2024-02-15T10:53:28;97697.31;;;15.82;100.00
5284;BME280;15377;48.540;9.268;2024-02-15T10:56:17;97689.69;;;15.66;100.00
5284;BME280;15377;48.540;9.268;2024-02-15T10:58:50;97695.94;;;15.56;100.00
5284;BME280;15377;48.540;9.268;2024-02-15T11:01:18;97695.47;;;15.57;100.00
5284;BME280;15377;48.540;9.268;2024-02-15T11:03:58;97679.72;;;15.38;100.00
5284;BME280;15377;48.540;9.268;2024-02-15T11:06:27;97694.88;;;15.42;100.00
5284;BME280;15377;48.540;9.268;2024-02-15T11:08:54;97688.63;;;15.47;100.00
5284;BME280;15377;48.540;9.268;2024-02-15T11:11:21;97693.16;;;15.50;100.00
5284;BME280;15377;48.540;9.268;2024-02-15T11:13:47;97675.00;;;15.49;100.00
5284;BME280;15377;48.540;9.268;2024-02-15T11:16:41;97680.09;;;15.67;100.00
5284;BME280;15377;48.540;9.268;2024-02-15T11:19:06;97666.53;;;15.80;100.00
5284;BME280;15377;48.540;9.268;2024-02-15T11:21:54;97666.00;;;15.76;100.00
5284;BME280;15377;48.540;9.268;2024-02-15T11:24:25;97662.50;;;15.81;100.00
5284;BME280;15377;48.540;9.268;2024-02-15T11:27:00;97659.72;;;15.76;100.00
5284;BME280;15377;48.540;9.268;2024-02-15T11:32:40;97656.94;;;15.76;100.00
5284;BME280;15377;48.540;9.268;2024-02-15T11:35:07;97661.22;;;15.77;100.00
5284;BME280;15377;48.540;9.268;2024-02-15T11:42:51;97648.13;;;15.83;100.00
5284;BME280;15377;48.540;9.268;2024-02-15T11:45:18;97645.84;;;15.81;100.00
5284;BME280;15377;48.540;9.268;2024-02-15T11:47:48;97634.03;;;15.92;100.00
5284;BME280;15377;48.540;9.268;2024-02-15T11:50:16;97639.88;;;16.16;100.00
5284;BME280;15377;48.540;9.268;2024-02-15T11:52:43;97636.59;;;16.17;100.00
5284;BME280;15377;48.540;9.268;2024-02-15T11:55:09;97632.56;;;16.18;100.00
5284;BME280;15377;48.540;9.268;2024-02-15T11:57:41;97629.03;;;16.29;100.00
5284;BME280;15377;48.540;9.268;2024-02-15T12:00:25;97631.81;;;16.34;100.00
5284;BME280;15377;48.540;9.268;2024-02-15T12:03:09;97640.19;;;16.56;100.00
5284;BME280;15377;48.540;9.268;2024-02-15T12:05:54;97629.56;;;16.77;100.00
5284;BME280;15377;48.540;9.268;2024-02-15T12:08:38;97629.53;;;16.88;100.00
5284;BME280;15377;48.540;9.268;2024-02-15T12:11:22;97625.72;;;16.96;100.00
5284;BME280;15377;48.540;9.268;2024-02-15T12:14:06;97621.41;;;17.06;100.00
5284;BME280;15377;48.540;9.268;2024-02-15T12:17:06;97625.38;;;17.22;100.00
5284;BME280;15377;48.540;9.268;2024-02-15T12:19:51;97618.56;;;17.17;100.00
5284;BME280;15377;48.540;9.268;2024-02-15T12:22:21;97613.75;;;17.23;100.00
5284;BME280;15377;48.540;9.268;2024-02-15T12:24:57;97600.81;;;17.42;100.00
5284;BME280;15377;48.540;9.268;2024-02-15T12:27:23;97601.41;;;17.13;100.00
5284;BME280;15377;48.540;9.268;2024-02-15T12:29:58;97598.16;;;16.98;100.00
5284;BME280;15377;48.540;9.268;2024-02-15T12:32:26;97591.34;;;16.99;100.00
5284;BME280;15377;48.540;9.268;2024-02-15T12:35:10;97574.09;;;17.12;100.00
5284;BME280;15377;48.540;9.268;2024-02-15T12:37:42;97585.97;;;17.18;100.00
5284;BME280;15377;48.540;9.268;2024-02-15T12:40:18;97586.25;;;17.14;100.00
5284;BME280;15377;48.540;9.268;2024-02-15T12:42:46;97583.16;;;17.23;100.00
5284;BME280;15377;48.540;9.268;2024-02-15T12:45:25;97578.00;;;17.49;100.00
5284;BME280;15377;48.540;9.268;2024-02-15T12:47:53;97579.28;;;17.48;100.00
5284;BME280;15377;48.540;9.268;2024-02-15T12:50:29;97558.81;;;17.51;100.00
5284;BME280;15377;48.540;9.268;2024-02-15T12:52:55;97554.25;;;17.48;100.00
5284;BME280;15377;48.540;9.268;2024-02-15T12:55:23;97560.53;;;17.54;100.00
5284;BME280;15377;48.540;9.268;2024-02-15T12:57:53;97554.25;;;17.48;100.00
5284;BME280;15377;48.540;9.268;2024-02-15T13:00:26;97553.00;;;17.44;100.00
5284;BME280;15377;48.540;9.268;2024-02-15T13:02:57;97533.56;;;17.38;100.00
5284;BME280;15377;48.540;9.268;2024-02-15T13:05:25;97539.28;;;17.57;100.00
5284;BME280;15377;48.540;9.268;2024-02-15T13:07:53;97541.56;;;17.58;100.00
5284;BME280;15377;48.540;9.268;2024-02-15T13:10:23;97534.22;;;17.55;100.00
5284;BME280;15377;48.540;9.268;2024-02-15T13:12:50;97536.03;;;17.47;100.00
5284;BME280;15377;48.540;9.268;2024-02-15T13:15:16;97526.38;;;17.59;100.00
5284;BME280;15377;48.540;9.268;2024-02-15T13:17:47;97534.19;;;17.66;100.00
5284;BME280;15377;48.540;9.268;2024-02-15T13:20:19;97535.56;;;17.84;100.00
5284;BME280;15377;48.540;9.268;2024-02-15T13:22:52;97534.72;;;17.94;100.00